createdAt,value
2022-11-26T00:00:57.653Z,96.94
2022-11-26T00:03:24.139Z,96.90
2022-11-26T00:05:51.658Z,96.47
2022-11-26T00:08:24.713Z,96.66
2022-11-26T00:10:52.285Z,95.94
2022-11-26T00:13:21.372Z,95.93
2022-11-26T00:15:48.994Z,95.66
2022-11-26T00:18:16.034Z,95.85
2022-11-26T00:20:42.918Z,96.05
2022-11-26T00:23:17.723Z,96.99
2022-11-26T00:25:47.088Z,97.50
2022-11-26T00:28:28.511Z,98.09
2022-11-26T00:30:59.504Z,97.43
2022-11-26T00:33:27.028Z,93.24
2022-11-26T00:35:58.728Z,92.09
2022-11-26T00:38:25.431Z,93.94
2022-11-26T00:40:51.892Z,95.48
2022-11-26T00:43:18.897Z,96.00
2022-11-26T00:45:45.483Z,96.40
2022-11-26T00:48:12.042Z,96.18
2022-11-26T00:50:42.273Z,96.55
2022-11-26T00:53:12.126Z,97.06
2022-11-26T00:55:39.891Z,96.88
2022-11-26T00:58:07.317Z,97.67
2022-11-26T01:00:34.561Z,98.08
2022-11-26T01:03:01.224Z,98.05
2022-11-26T01:05:33.499Z,97.68
2022-11-26T01:08:01.139Z,97.52
2022-11-26T01:10:29.332Z,98.61
2022-11-26T01:12:56.367Z,98.90
2022-11-26T01:15:24.365Z,98.13
2022-11-26T01:17:51.555Z,97.97
2022-11-26T01:20:26.560Z,98.13
2022-11-26T01:22:53.985Z,98.82
2022-11-26T01:25:21.187Z,100.00
2022-11-26T01:27:47.986Z,99.22
2022-11-26T01:30:18.329Z,98.76
2022-11-26T01:32:44.872Z,98.56
2022-11-26T01:35:11.609Z,98.01
2022-11-26T01:37:38.103Z,97.59
2022-11-26T01:40:19.148Z,97.56
2022-11-26T01:42:49.519Z,98.12
2022-11-26T01:45:20.565Z,97.46
2022-11-26T01:47:49.986Z,97.09
2022-11-26T01:50:31.691Z,97.27
2022-11-26T01:53:03.560Z,97.06
2022-11-26T01:55:38.445Z,96.96
2022-11-26T01:58:06.504Z,96.58
2022-11-26T02:00:33.026Z,97.01
2022-11-26T02:03:00.047Z,97.37
2022-11-26T02:05:29.388Z,97.06
2022-11-26T02:07:57.079Z,97.04
2022-11-26T02:10:23.581Z,96.83
2022-11-26T02:12:50.637Z,96.86
2022-11-26T02:15:17.151Z,97.79
2022-11-26T02:17:51.354Z,97.57
2022-11-26T02:20:36.620Z,97.66
2022-11-26T02:23:06.032Z,98.50
2022-11-26T02:25:47.839Z,98.34
2022-11-26T02:28:32.865Z,98.22
2022-11-26T02:31:11.387Z,96.10
2022-11-26T02:33:45.185Z,96.66
2022-11-26T02:36:17.092Z,97.21
2022-11-26T02:38:44.166Z,98.17
2022-11-26T02:41:10.616Z,97.89
2022-11-26T02:43:38.326Z,97.86
2022-11-26T02:46:09.443Z,98.00
2022-11-26T02:48:38.812Z,97.73
2022-11-26T02:51:08.433Z,97.98
2022-11-26T02:53:35.813Z,98.60
2022-11-26T02:56:07.319Z,98.59
2022-11-26T02:58:34.648Z,98.14
2022-11-26T03:01:03.421Z,95.05
2022-11-26T03:03:33.657Z,96.54
2022-11-26T03:06:02.336Z,97.59
2022-11-26T03:08:29.471Z,98.67
2022-11-26T03:10:56.005Z,99.38
2022-11-26T03:13:22.430Z,99.54
2022-11-26T03:15:48.871Z,99.64
2022-11-26T03:18:15.350Z,100.00
2022-11-26T03:20:41.812Z,99.72
2022-11-26T03:23:08.227Z,100.00
2022-11-26T03:25:35.180Z,100.00
2022-11-26T03:28:02.432Z,100.00
2022-11-26T03:30:28.879Z,99.07
2022-11-26T03:32:55.923Z,99.79
2022-11-26T03:35:22.704Z,100.00
2022-11-26T03:37:49.444Z,100.00
2022-11-26T03:40:16.874Z,99.68
2022-11-26T03:42:43.807Z,99.47
2022-11-26T03:45:10.537Z,100.00
2022-11-26T03:47:37.210Z,100.00
2022-11-26T03:50:04.418Z,100.00
2022-11-26T03:52:30.835Z,99.94
2022-11-26T03:54:57.296Z,98.11
2022-11-26T03:57:23.772Z,99.02
2022-11-26T03:59:50.201Z,99.33
2022-11-26T04:02:16.811Z,99.00
2022-11-26T04:04:43.253Z,98.89
2022-11-26T04:07:09.753Z,99.44
2022-11-26T04:09:36.217Z,99.53
2022-11-26T04:12:02.664Z,99.83
2022-11-26T04:14:29.110Z,98.49
2022-11-26T04:16:55.697Z,99.35
2022-11-26T04:19:22.177Z,99.44
2022-11-26T04:21:48.652Z,99.98
2022-11-26T04:24:15.135Z,100.00
2022-11-26T04:26:41.583Z,100.00
2022-11-26T04:29:08.158Z,99.96
2022-11-26T04:31:34.689Z,99.80
2022-11-26T04:34:01.209Z,100.00
2022-11-26T04:36:27.679Z,99.63
2022-11-26T04:38:54.117Z,99.84
2022-11-26T04:41:20.557Z,98.95
2022-11-26T04:43:47.065Z,99.04
2022-11-26T04:46:13.536Z,99.25
2022-11-26T04:48:40.037Z,99.17
2022-11-26T04:51:06.493Z,99.06
2022-11-26T04:53:32.944Z,99.19
2022-11-26T04:55:59.386Z,98.15
2022-11-26T04:58:26.007Z,99.04
2022-11-26T05:00:52.713Z,99.14
2022-11-26T05:03:19.417Z,98.04
2022-11-26T05:05:47.068Z,97.06
2022-11-26T05:08:13.670Z,97.55
2022-11-26T05:10:40.080Z,98.12
2022-11-26T05:13:06.512Z,98.15
2022-11-26T05:15:32.929Z,97.72
2022-11-26T05:17:59.370Z,97.27
2022-11-26T05:20:25.874Z,96.71
2022-11-26T05:22:52.328Z,97.29
2022-11-26T05:25:18.827Z,98.34
2022-11-26T05:27:45.278Z,97.79
2022-11-26T05:30:12.048Z,98.27
2022-11-26T05:32:38.488Z,99.24
2022-11-26T05:35:05.041Z,100.00
2022-11-26T05:37:31.668Z,99.96
2022-11-26T05:39:58.113Z,100.00
2022-11-26T05:42:24.616Z,99.96
2022-11-26T05:44:51.108Z,99.83
2022-11-26T05:47:17.504Z,100.00
2022-11-26T05:49:43.914Z,100.00
2022-11-26T05:52:10.333Z,100.00
2022-11-26T05:54:37.018Z,100.00
2022-11-26T05:57:03.773Z,100.00
2022-11-26T05:59:30.401Z,100.00
2022-11-26T06:01:56.930Z,100.00
2022-11-26T06:04:23.661Z,100.00
2022-11-26T06:06:50.077Z,100.00
2022-11-26T06:09:16.548Z,100.00
2022-11-26T06:11:42.974Z,100.00
2022-11-26T06:14:10.502Z,100.00
2022-11-26T06:16:37.104Z,100.00
2022-11-26T06:19:03.695Z,99.14
2022-11-26T06:21:30.151Z,94.75
2022-11-26T06:23:59.548Z,95.38
2022-11-26T06:26:26.713Z,98.19
2022-11-26T06:28:53.201Z,99.62
2022-11-26T06:31:19.844Z,99.80
2022-11-26T06:33:46.593Z,99.29
2022-11-26T06:36:13.045Z,100.00
2022-11-26T06:38:39.471Z,99.89
2022-11-26T06:41:07.044Z,100.00
2022-11-26T06:43:33.812Z,99.69
2022-11-26T06:46:01.573Z,99.70
2022-11-26T06:48:28.070Z,99.91
2022-11-26T06:50:54.543Z,100.00
2022-11-26T06:53:20.971Z,100.00
2022-11-26T06:55:47.543Z,100.00
2022-11-26T06:58:14.871Z,100.00
2022-11-26T07:00:42.345Z,100.00
2022-11-26T07:03:09.084Z,98.61
2022-11-26T07:05:36.004Z,99.83
2022-11-26T07:08:02.481Z,99.88
2022-11-26T07:10:29.207Z,100.00
2022-11-26T07:12:55.769Z,100.00
2022-11-26T07:15:22.205Z,100.00
2022-11-26T07:17:48.615Z,100.00
2022-11-26T07:20:15.162Z,99.26
2022-11-26T07:22:41.633Z,99.26
2022-11-26T07:25:12.340Z,99.18
2022-11-26T07:27:39.420Z,99.79
2022-11-26T07:30:06.207Z,99.69
2022-11-26T07:32:32.671Z,99.40
2022-11-26T07:35:04.017Z,99.19
2022-11-26T07:37:31.996Z,99.02
2022-11-26T07:39:58.411Z,98.91
2022-11-26T07:42:25.009Z,98.05
2022-11-26T07:44:51.417Z,94.55
2022-11-26T07:47:17.917Z,95.50
2022-11-26T07:49:44.532Z,96.27
2022-11-26T07:52:10.961Z,96.39
2022-11-26T07:54:37.855Z,97.13
2022-11-26T07:57:04.463Z,97.35
2022-11-26T07:59:30.920Z,97.53
2022-11-26T08:01:57.490Z,97.81
2022-11-26T08:04:24.132Z,97.00
2022-11-26T08:06:50.685Z,97.53
2022-11-26T08:09:17.275Z,98.97
2022-11-26T08:11:43.751Z,98.16
2022-11-26T08:14:11.446Z,97.11
2022-11-26T08:16:37.937Z,96.42
2022-11-26T08:19:05.897Z,96.46
2022-11-26T08:21:32.612Z,96.82
2022-11-26T08:23:59.353Z,97.03
2022-11-26T08:26:35.044Z,96.26
2022-11-26T08:29:05.278Z,94.27
2022-11-26T08:31:31.870Z,92.99
2022-11-26T08:33:59.149Z,92.32
2022-11-26T08:36:26.444Z,92.79
2022-11-26T08:38:52.928Z,92.31
2022-11-26T08:41:19.468Z,92.46
2022-11-26T08:44:05.675Z,92.91
2022-11-26T08:46:32.418Z,91.19
2022-11-26T08:48:58.845Z,93.44
2022-11-26T08:51:25.680Z,94.16
2022-11-26T08:53:53.242Z,92.34
2022-11-26T08:56:19.768Z,92.25
2022-11-26T08:58:46.614Z,91.89
2022-11-26T09:01:20.060Z,90.26
2022-11-26T09:03:50.739Z,88.23
2022-11-26T09:06:17.923Z,88.92
2022-11-26T09:09:03.029Z,88.29
2022-11-26T09:11:29.545Z,86.11
2022-11-26T09:13:57.519Z,87.75
2022-11-26T09:16:24.431Z,88.51
2022-11-26T09:18:51.317Z,85.98
2022-11-26T09:21:18.052Z,83.53
2022-11-26T09:23:44.516Z,85.15
2022-11-26T09:26:11.137Z,82.13
2022-11-26T09:28:37.584Z,84.19
2022-11-26T09:31:04.103Z,85.63
2022-11-26T09:33:30.626Z,78.89
2022-11-26T09:36:04.857Z,79.44
2022-11-26T09:38:31.309Z,82.55
2022-11-26T09:40:57.701Z,81.03
2022-11-26T09:43:42.198Z,79.64
2022-11-26T09:46:10.664Z,76.26
2022-11-26T09:48:38.566Z,78.03
2022-11-26T09:51:10.544Z,80.61
2022-11-26T09:53:40.444Z,77.26
2022-11-26T09:56:11.421Z,75.45
2022-11-26T09:58:43.945Z,69.40
2022-11-26T10:01:14.143Z,72.90
2022-11-26T10:03:42.316Z,73.28
2022-11-26T10:06:19.973Z,70.90
2022-11-26T10:08:55.504Z,72.54
2022-11-26T10:11:28.789Z,69.94
2022-11-26T10:14:14.032Z,67.37
2022-11-26T10:16:40.627Z,69.27
2022-11-26T10:19:27.332Z,67.56
2022-11-26T10:21:59.100Z,64.65
2022-11-26T10:24:26.187Z,65.38
2022-11-26T10:26:53.277Z,60.75
2022-11-26T10:29:24.234Z,61.46
2022-11-26T10:31:53.379Z,62.29
2022-11-26T10:34:24.109Z,60.88
2022-11-26T10:36:51.278Z,59.81
2022-11-26T10:39:19.467Z,60.80
2022-11-26T10:41:46.476Z,59.03
2022-11-26T10:44:29.750Z,57.62
2022-11-26T10:46:56.941Z,56.04
2022-11-26T10:49:24.660Z,51.93
2022-11-26T10:51:54.558Z,52.31
2022-11-26T10:54:24.200Z,55.51
2022-11-26T10:56:53.287Z,55.99
2022-11-26T10:59:28.840Z,56.09
2022-11-26T11:02:00.857Z,54.45
2022-11-26T11:04:29.591Z,54.84
2022-11-26T11:06:56.633Z,55.05
2022-11-26T11:09:28.205Z,55.62
2022-11-26T11:12:13.417Z,51.64
2022-11-26T11:14:45.631Z,51.92
2022-11-26T11:17:39.774Z,52.94
2022-11-26T11:20:15.476Z,52.43
2022-11-26T11:22:42.790Z,52.11
2022-11-26T11:25:21.770Z,52.38
2022-11-26T11:27:49.129Z,50.33
2022-11-26T11:30:25.887Z,50.06
2022-11-26T11:32:55.122Z,49.76
2022-11-26T11:35:23.009Z,53.11
2022-11-26T11:37:51.128Z,53.63
2022-11-26T11:40:23.419Z,52.99
2022-11-26T11:42:51.739Z,54.35
2022-11-26T11:45:23.372Z,55.14
2022-11-26T11:47:57.114Z,54.55
2022-11-26T11:50:39.113Z,56.63
2022-11-26T11:53:24.078Z,57.46
2022-11-26T11:55:56.924Z,59.30
2022-11-26T11:58:41.132Z,60.32
2022-11-26T12:01:22.774Z,62.08
2022-11-26T12:04:05.151Z,62.36
2022-11-26T12:06:53.280Z,63.04
2022-11-26T12:09:26.021Z,62.79
2022-11-26T12:11:52.442Z,64.40
2022-11-26T12:14:28.762Z,64.89
2022-11-26T12:16:58.361Z,65.60
2022-11-26T12:19:29.394Z,67.02
2022-11-26T12:22:04.205Z,66.64
2022-11-26T12:24:46.064Z,65.33
2022-11-26T12:27:19.418Z,66.81
2022-11-26T12:29:53.641Z,68.42
2022-11-26T12:32:40.327Z,70.03
2022-11-26T12:35:12.204Z,73.05
2022-11-26T12:37:42.511Z,72.14
2022-11-26T12:40:27.756Z,69.38
2022-11-26T12:42:57.329Z,68.55
2022-11-26T12:45:26.807Z,69.38
2022-11-26T12:47:57.251Z,70.25
2022-11-26T12:50:38.269Z,69.04
2022-11-26T12:53:31.763Z,70.62
2022-11-26T12:56:01.022Z,71.63
2022-11-26T12:58:31.477Z,71.76
2022-11-26T13:00:58.628Z,72.10
2022-11-26T13:03:29.717Z,71.25
2022-11-26T13:05:56.265Z,72.11
2022-11-26T13:08:32.204Z,72.95
2022-11-26T13:11:11.837Z,73.55
2022-11-26T13:13:38.929Z,72.61
2022-11-26T13:16:20.253Z,73.01
2022-11-26T13:18:49.134Z,73.11
2022-11-26T13:21:22.058Z,74.78
2022-11-26T13:23:56.289Z,75.06
2022-11-26T13:26:33.155Z,76.21
2022-11-26T13:29:07.900Z,75.48
2022-11-26T13:31:43.903Z,75.89
2022-11-26T13:34:31.125Z,76.10
2022-11-26T13:37:07.028Z,74.36
2022-11-26T13:39:52.188Z,73.23
2022-11-26T13:42:33.980Z,70.64
2022-11-26T13:45:09.522Z,73.28
2022-11-26T13:47:48.205Z,75.65
2022-11-26T13:50:17.666Z,78.00
2022-11-26T13:52:54.040Z,77.81
2022-11-26T13:55:28.165Z,77.80
2022-11-26T13:57:58.353Z,79.38
2022-11-26T14:00:29.314Z,78.75
2022-11-26T14:02:56.568Z,78.55
2022-11-26T14:05:23.502Z,79.33
2022-11-26T14:07:50.270Z,80.60
2022-11-26T14:10:34.993Z,81.83
2022-11-26T14:13:04.327Z,80.01
2022-11-26T14:15:43.036Z,76.43
2022-11-26T14:18:10.653Z,76.21
2022-11-26T14:20:55.961Z,74.46
2022-11-26T14:23:40.774Z,72.64
2022-11-26T14:26:08.797Z,74.48
2022-11-26T14:28:35.275Z,76.89
2022-11-26T14:31:13.922Z,78.38
2022-11-26T14:33:44.926Z,80.00
2022-11-26T14:36:24.686Z,79.94
2022-11-26T14:39:23.736Z,81.12
2022-11-26T14:41:51.666Z,83.26
2022-11-26T14:44:18.631Z,82.81
2022-11-26T14:46:49.145Z,81.79
2022-11-26T14:49:31.061Z,82.09
2022-11-26T14:51:58.150Z,80.43
2022-11-26T14:54:33.305Z,79.72
2022-11-26T14:57:04.782Z,80.80
2022-11-26T14:59:31.344Z,80.51
2022-11-26T15:01:57.932Z,79.45
2022-11-26T15:04:29.044Z,79.74
2022-11-26T15:06:55.817Z,79.27
2022-11-26T15:09:26.964Z,79.15
2022-11-26T15:11:56.465Z,79.80
2022-11-26T15:14:26.391Z,80.47
2022-11-26T15:16:57.334Z,80.22
2022-11-26T15:19:24.280Z,81.13
2022-11-26T15:21:52.018Z,82.37
2022-11-26T15:24:18.859Z,83.34
2022-11-26T15:26:46.494Z,83.84
2022-11-26T15:29:31.669Z,83.96
2022-11-26T15:31:58.237Z,84.94
2022-11-26T15:34:25.701Z,85.36
2022-11-26T15:36:52.326Z,86.14
2022-11-26T15:39:24.525Z,86.88
2022-11-26T15:41:51.892Z,89.55
2022-11-26T15:44:21.385Z,89.03
2022-11-26T15:46:49.252Z,89.65
2022-11-26T15:49:20.935Z,88.53
2022-11-26T15:51:54.017Z,88.89
2022-11-26T15:54:43.342Z,88.69
2022-11-26T15:57:36.356Z,87.79
2022-11-26T16:00:08.416Z,87.74
2022-11-26T16:02:38.606Z,87.39
2022-11-26T16:05:05.337Z,87.02
2022-11-26T16:07:32.988Z,87.65
2022-11-26T16:10:21.967Z,87.93
2022-11-26T16:13:08.928Z,87.09
2022-11-26T16:15:35.925Z,86.73
2022-11-26T16:18:04.508Z,87.24
2022-11-26T16:20:30.984Z,87.72
2022-11-26T16:23:00.765Z,86.94
2022-11-26T16:25:27.160Z,86.64
2022-11-26T16:28:04.115Z,86.90
2022-11-26T16:30:30.655Z,86.54
2022-11-26T16:32:57.146Z,85.62
2022-11-26T16:35:44.738Z,86.09
2022-11-26T16:38:20.265Z,86.32
2022-11-26T16:40:46.819Z,85.84
2022-11-26T16:43:14.229Z,85.84
2022-11-26T16:45:40.892Z,84.79
2022-11-26T16:48:14.153Z,82.46
2022-11-26T16:50:40.617Z,84.49
2022-11-26T16:53:08.478Z,86.88
2022-11-26T16:55:34.920Z,87.23
2022-11-26T16:58:02.357Z,87.26
2022-11-26T17:00:28.850Z,87.54
2022-11-26T17:02:56.637Z,87.61
2022-11-26T17:05:24.619Z,88.00
2022-11-26T17:07:58.972Z,87.99
2022-11-26T17:10:28.392Z,88.76
2022-11-26T17:12:55.327Z,89.06
2022-11-26T17:15:22.630Z,88.96
2022-11-26T17:17:49.848Z,88.96
2022-11-26T17:20:17.946Z,88.88
2022-11-26T17:22:45.353Z,88.77
2022-11-26T17:25:12.552Z,89.03
2022-11-26T17:27:39.194Z,89.28
2022-11-26T17:30:06.671Z,88.89
2022-11-26T17:32:33.100Z,89.02
2022-11-26T17:34:59.658Z,88.57
2022-11-26T17:37:27.809Z,88.98
2022-11-26T17:39:54.857Z,89.20
2022-11-26T17:42:22.824Z,89.92
2022-11-26T17:44:54.447Z,90.11
2022-11-26T17:47:25.584Z,89.86
2022-11-26T17:49:52.607Z,90.33
2022-11-26T17:52:19.335Z,90.77
2022-11-26T17:54:46.158Z,90.57
2022-11-26T17:57:13.430Z,90.84
2022-11-26T17:59:40.239Z,90.89
2022-11-26T18:02:06.996Z,91.38
2022-11-26T18:04:33.504Z,91.46
2022-11-26T18:07:07.770Z,91.09
2022-11-26T18:09:34.689Z,91.34
2022-11-26T18:12:01.849Z,93.32
2022-11-26T18:14:28.536Z,93.58
2022-11-26T18:16:54.995Z,92.98
2022-11-26T18:19:22.440Z,93.36
2022-11-26T18:21:49.712Z,92.24
2022-11-26T18:24:16.238Z,92.61
2022-11-26T18:26:43.141Z,92.27
2022-11-26T18:29:10.383Z,92.22
2022-11-26T18:31:39.754Z,92.05
2022-11-26T18:34:07.071Z,91.73
2022-11-26T18:36:33.516Z,91.96
2022-11-26T18:38:59.954Z,91.80
2022-11-26T18:41:26.596Z,92.79
2022-11-26T18:43:53.073Z,92.21
2022-11-26T18:46:19.563Z,92.90
2022-11-26T18:48:46.939Z,92.30
2022-11-26T18:51:13.966Z,92.44
2022-11-26T18:53:40.587Z,91.62
2022-11-26T18:56:12.299Z,91.80
2022-11-26T18:58:39.128Z,92.10
2022-11-26T19:01:15.804Z,92.17
2022-11-26T19:03:43.997Z,92.50
2022-11-26T19:06:14.443Z,92.34
2022-11-26T19:08:40.889Z,92.44
2022-11-26T19:11:14.809Z,92.47
2022-11-26T19:13:41.385Z,92.14
2022-11-26T19:16:14.534Z,91.90
2022-11-26T19:18:43.031Z,92.63
2022-11-26T19:21:19.747Z,92.46
2022-11-26T19:23:46.722Z,92.39
2022-11-26T19:26:13.710Z,92.37
2022-11-26T19:28:40.410Z,92.25
2022-11-26T19:31:08.511Z,92.41
2022-11-26T19:33:35.096Z,92.46
2022-11-26T19:36:05.349Z,92.17
2022-11-26T19:38:31.994Z,93.23
2022-11-26T19:40:59.136Z,93.25
2022-11-26T19:43:26.660Z,92.61
2022-11-26T19:46:00.981Z,92.72
2022-11-26T19:48:27.542Z,89.82
2022-11-26T19:50:55.215Z,90.80
2022-11-26T19:53:22.015Z,92.46
2022-11-26T19:55:55.245Z,93.19
2022-11-26T19:58:21.704Z,94.01
2022-11-26T20:00:48.131Z,93.33
2022-11-26T20:03:14.688Z,93.92
2022-11-26T20:05:41.121Z,94.63
2022-11-26T20:08:08.065Z,94.17
2022-11-26T20:10:34.541Z,94.79
2022-11-26T20:13:01.108Z,93.97
2022-11-26T20:15:27.512Z,93.56
2022-11-26T20:17:53.950Z,92.81
2022-11-26T20:20:20.381Z,93.26
2022-11-26T20:22:46.829Z,93.18
2022-11-26T20:25:15.497Z,93.57
2022-11-26T20:27:43.509Z,95.12
2022-11-26T20:30:10.561Z,94.63
2022-11-26T20:32:37.484Z,94.38
2022-11-26T20:35:04.792Z,94.63
2022-11-26T20:37:31.585Z,94.80
2022-11-26T20:39:58.122Z,94.06
2022-11-26T20:42:24.569Z,93.98
2022-11-26T20:44:51.081Z,94.27
2022-11-26T20:47:17.529Z,93.78
2022-11-26T20:49:44.252Z,93.49
2022-11-26T20:52:11.210Z,93.40
2022-11-26T20:54:37.678Z,93.51
2022-11-26T20:57:05.946Z,93.59
2022-11-26T20:59:32.614Z,94.55
2022-11-26T21:01:59.097Z,94.69
2022-11-26T21:04:25.586Z,94.52
2022-11-26T21:06:52.013Z,94.80
2022-11-26T21:09:18.536Z,94.37
2022-11-26T21:11:45.012Z,94.70
2022-11-26T21:14:14.984Z,95.11
2022-11-26T21:16:41.949Z,95.17
2022-11-26T21:19:10.919Z,94.77
2022-11-26T21:21:37.574Z,93.92
2022-11-26T21:24:06.115Z,93.92
2022-11-26T21:26:32.975Z,93.89
2022-11-26T21:29:00.161Z,93.94
2022-11-26T21:31:28.218Z,93.88
2022-11-26T21:34:14.521Z,94.30
2022-11-26T21:36:43.053Z,93.98
2022-11-26T21:39:11.735Z,93.57
2022-11-26T21:41:38.233Z,94.15
2022-11-26T21:44:04.746Z,94.98
2022-11-26T21:46:37.567Z,95.30
2022-11-26T21:49:05.389Z,97.17
2022-11-26T21:51:31.885Z,96.41
2022-11-26T21:53:58.697Z,96.58
2022-11-26T21:56:29.522Z,97.45
2022-11-26T21:58:59.363Z,97.00
2022-11-26T22:01:25.906Z,96.72
2022-11-26T22:03:53.636Z,96.22
2022-11-26T22:06:21.175Z,96.25
2022-11-26T22:08:47.980Z,96.41
2022-11-26T22:11:15.589Z,95.88
2022-11-26T22:13:42.468Z,95.46
2022-11-26T22:16:10.297Z,95.04
2022-11-26T22:18:41.297Z,94.97
2022-11-26T22:21:10.452Z,95.92
2022-11-26T22:23:36.942Z,95.96
2022-11-26T22:26:04.080Z,94.92
2022-11-26T22:28:30.653Z,95.66
2022-11-26T22:30:57.180Z,95.84
2022-11-26T22:33:23.723Z,95.53
2022-11-26T22:35:50.150Z,96.29
2022-11-26T22:38:16.622Z,95.30
2022-11-26T22:40:43.036Z,94.83
2022-11-26T22:43:09.496Z,95.40
2022-11-26T22:45:36.971Z,95.19
2022-11-26T22:48:03.537Z,96.51
2022-11-26T22:50:29.944Z,96.30
2022-11-26T22:52:56.460Z,96.44
2022-11-26T22:55:23.353Z,96.02
2022-11-26T22:57:49.816Z,97.99
2022-11-26T23:00:36.419Z,99.54
2022-11-26T23:03:03.012Z,98.42
2022-11-26T23:05:29.512Z,98.62
2022-11-26T23:07:55.997Z,98.55
2022-11-26T23:10:22.451Z,97.39
2022-11-26T23:12:48.871Z,96.69
2022-11-26T23:15:15.292Z,96.68
2022-11-26T23:17:41.770Z,96.67
2022-11-26T23:20:08.364Z,96.78
2022-11-26T23:22:34.812Z,95.42
2022-11-26T23:25:01.260Z,95.92
2022-11-26T23:27:27.672Z,95.45
2022-11-26T23:29:54.221Z,94.97
2022-11-26T23:32:20.663Z,95.14
2022-11-26T23:34:50.172Z,95.17
2022-11-26T23:37:16.595Z,94.95
2022-11-26T23:39:43.081Z,95.44
2022-11-26T23:42:09.534Z,95.48
2022-11-26T23:44:36.121Z,95.63
2022-11-26T23:47:02.572Z,92.82
2022-11-26T23:49:29.051Z,93.54
2022-11-26T23:51:55.473Z,93.50
2022-11-26T23:54:21.950Z,94.25
2022-11-26T23:56:48.967Z,94.24
2022-11-26T23:59:15.432Z,94.95
